Time;durP1;ratioP1;P1;durP2;ratioP2;P2;SDS_P1;SDS_P2;PMS_P1;PMS_P2;Temp;Humidity;BMP_temperature;BMP_pressure;BME280_temperature;BME280_humidity;BME280_pressure;Samples;Min_cycle;Max_cycle;Signal;HPM_P1;HPM_P2
2023/12/31 00:00:33;;;;;;;2.63;2.35;;;;;;;;;;5026782;28;25069;-70
2023/12/31 00:02:59;;;;;;;3.55;2.53;;;;;;;;;;5029562;28;25077;-71
2023/12/31 00:05:25;;;;;;;6.70;2.50;;;;;;;;;;5031536;28;25134;-69
2023/12/31 00:07:51;;;;;;;3.35;2.30;;;;;;;;;;5030079;28;25053;-70
2023/12/31 00:10:17;;;;;;;5.40;2.50;;;;;;;;;;5030945;28;25073;-69
2023/12/31 00:12:44;;;;;;;3.75;2.00;;;;;;;;;;5030667;28;25058;-69
2023/12/31 00:15:10;;;;;;;3.03;2.10;;;;;;;;;;5031052;28;25073;-69
2023/12/31 00:17:36;;;;;;;2.67;1.90;;;;;;;;;;5029736;28;25150;-71
2023/12/31 00:20:03;;;;;;;2.25;2.03;;;;;;;;;;5026988;28;25171;-70
2023/12/31 00:22:29;;;;;;;2.63;1.90;;;;;;;;;;5028550;28;25051;-70
2023/12/31 00:24:55;;;;;;;5.22;1.85;;;;;;;;;;5026730;28;25061;-71
2023/12/31 00:27:22;;;;;;;2.80;1.80;;;;;;;;;;5029832;28;25054;-71
2023/12/31 00:29:51;;;;;;;2.88;1.83;;;;;;;;;;5027787;28;25093;-70
2023/12/31 00:32:17;;;;;;;5.18;1.80;;;;;;;;;;5028400;28;25071;-70
2023/12/31 00:34:43;;;;;;;4.13;1.60;;;;;;;;;;5032205;28;25052;-71
2023/12/31 00:37:09;;;;;;;3.20;1.70;;;;;;;;;;5030622;28;25086;-72
2023/12/31 00:39:35;;;;;;;2.08;1.67;;;;;;;;;;5031992;28;25069;-70
2023/12/31 00:42:01;;;;;;;2.17;1.98;;;;;;;;;;5031632;28;25071;-71
2023/12/31 00:44:27;;;;;;;3.15;1.95;;;;;;;;;;5034745;28;25105;-71
2023/12/31 00:46:53;;;;;;;4.35;2.22;;;;;;;;;;5014160;28;25121;-70
2023/12/31 00:49:19;;;;;;;5.88;1.73;;;;;;;;;;5033649;28;25084;-69
2023/12/31 00:51:45;;;;;;;3.78;1.73;;;;;;;;;;5034536;28;25066;-70
2023/12/31 00:54:11;;;;;;;2.53;1.75;;;;;;;;;;5036244;28;25055;-70
2023/12/31 00:56:37;;;;;;;4.10;1.70;;;;;;;;;;5038641;28;25064;-70
2023/12/31 00:59:03;;;;;;;4.53;1.60;;;;;;;;;;5037738;28;25084;-69
2023/12/31 01:01:30;;;;;;;4.93;1.50;;;;;;;;;;5035920;28;25136;-69
2023/12/31 01:03:56;;;;;;;2.58;1.60;;;;;;;;;;5038170;28;25076;-69
2023/12/31 01:06:22;;;;;;;3.42;2.10;;;;;;;;;;5043109;28;25156;-70
2023/12/31 01:08:48;;;;;;;2.67;1.60;;;;;;;;;;5036826;28;25058;-69
2023/12/31 01:11:14;;;;;;;3.22;1.48;;;;;;;;;;5035234;28;25092;-69
2023/12/31 01:13:40;;;;;;;5.53;2.40;;;;;;;;;;5036054;28;25067;-70
2023/12/31 01:16:07;;;;;;;6.00;1.80;;;;;;;;;;5038451;28;25093;-70
2023/12/31 01:18:33;;;;;;;2.35;1.52;;;;;;;;;;5034441;28;25077;-69
2023/12/31 01:21:01;;;;;;;4.18;1.65;;;;;;;;;;5030974;28;25108;-69
2023/12/31 01:23:27;;;;;;;3.35;1.58;;;;;;;;;;5035088;28;25084;-70
2023/12/31 01:25:54;;;;;;;2.08;1.45;;;;;;;;;;5030239;28;25061;-69
2023/12/31 01:28:20;;;;;;;4.60;1.50;;;;;;;;;;5034706;28;25093;-68
2023/12/31 01:30:46;;;;;;;2.08;1.25;;;;;;;;;;5036649;28;25078;-70
2023/12/31 01:33:12;;;;;;;3.10;1.60;;;;;;;;;;5032919;28;25069;-70
2023/12/31 01:35:38;;;;;;;3.30;1.40;;;;;;;;;;5035493;28;25067;-70
2023/12/31 01:38:04;;;;;;;2.13;1.55;;;;;;;;;;5030331;28;25058;-70
2023/12/31 01:40:30;;;;;;;4.15;1.45;;;;;;;;;;5035067;28;25175;-69
2023/12/31 01:42:56;;;;;;;3.25;1.83;;;;;;;;;;5033961;28;25060;-69
2023/12/31 01:45:22;;;;;;;4.07;1.58;;;;;;;;;;5030665;28;25061;-69
2023/12/31 01:47:48;;;;;;;3.08;1.38;;;;;;;;;;5031994;28;25062;-70
2023/12/31 01:50:14;;;;;;;3.67;1.25;;;;;;;;;;5036325;28;25061;-69
2023/12/31 01:52:41;;;;;;;3.35;1.77;;;;;;;;;;5031539;28;25079;-69
2023/12/31 01:55:08;;;;;;;3.78;1.90;;;;;;;;;;5030586;28;25118;-69
2023/12/31 01:57:35;;;;;;;2.35;1.60;;;;;;;;;;5030835;28;25198;-69
2023/12/31 02:00:04;;;;;;;1.77;1.63;;;;;;;;;;5029623;28;25070;-72
2023/12/31 02:02:31;;;;;;;2.50;1.77;;;;;;;;;;5022896;28;25084;-68
2023/12/31 02:04:57;;;;;;;6.65;2.10;;;;;;;;;;5029917;28;25056;-68
2023/12/31 02:07:23;;;;;;;3.03;2.20;;;;;;;;;;5026248;28;25111;-69
2023/12/31 02:09:49;;;;;;;2.30;2.10;;;;;;;;;;5030743;28;25149;-68
2023/12/31 02:12:16;;;;;;;2.92;1.65;;;;;;;;;;5028802;28;25151;-69
2023/12/31 02:14:42;;;;;;;1.92;1.83;;;;;;;;;;5029195;28;25153;-70
2023/12/31 02:17:08;;;;;;;7.10;2.10;;;;;;;;;;5029100;28;25067;-70
2023/12/31 02:19:34;;;;;;;2.95;1.80;;;;;;;;;;5025082;28;25078;-70
2023/12/31 02:22:00;;;;;;;4.25;2.22;;;;;;;;;;5029195;28;25148;-70
2023/12/31 02:24:31;;;;;;;6.32;2.00;;;;;;;;;;5027724;28;25073;-70
2023/12/31 02:26:57;;;;;;;4.07;1.73;;;;;;;;;;5026413;28;25092;-72
2023/12/31 02:29:23;;;;;;;2.63;1.80;;;;;;;;;;5025354;28;25186;-70
2023/12/31 02:31:49;;;;;;;4.45;1.90;;;;;;;;;;5029529;28;25104;-69
2023/12/31 02:34:16;;;;;;;6.43;2.42;;;;;;;;;;5035460;28;25079;-69
2023/12/31 02:36:42;;;;;;;2.13;1.80;;;;;;;;;;5030386;28;25172;-70
2023/12/31 02:39:09;;;;;;;2.22;1.98;;;;;;;;;;5029069;28;25047;-69
2023/12/31 02:41:34;;;;;;;5.20;2.35;;;;;;;;;;5028735;28;25067;-69
2023/12/31 02:44:01;;;;;;;2.10;1.90;;;;;;;;;;5027548;28;25155;-69
2023/12/31 02:46:27;;;;;;;8.25;2.13;;;;;;;;;;5022838;28;25059;-69
2023/12/31 02:48:53;;;;;;;2.33;1.65;;;;;;;;;;5028781;28;25050;-69
2023/12/31 02:51:19;;;;;;;4.55;1.67;;;;;;;;;;5028790;28;25121;-69
2023/12/31 02:53:45;;;;;;;2.67;1.88;;;;;;;;;;5028508;28;25067;-70
2023/12/31 02:56:11;;;;;;;6.63;2.00;;;;;;;;;;5029406;28;25052;-70
2023/12/31 02:58:37;;;;;;;4.15;1.88;;;;;;;;;;5026822;28;25060;-69
2023/12/31 03:01:03;;;;;;;4.95;2.10;;;;;;;;;;5033280;28;25068;-69
2023/12/31 03:03:29;;;;;;;2.80;2.13;;;;;;;;;;5029615;28;25066;-68
2023/12/31 03:05:55;;;;;;;2.70;1.85;;;;;;;;;;5029514;28;25058;-69
2023/12/31 03:08:21;;;;;;;5.32;2.08;;;;;;;;;;5027763;28;25070;-70
2023/12/31 03:10:47;;;;;;;3.05;2.25;;;;;;;;;;5028609;28;25098;-69
2023/12/31 03:13:13;;;;;;;2.53;1.90;;;;;;;;;;5028186;28;25063;-69
2023/12/31 03:15:39;;;;;;;4.88;1.80;;;;;;;;;;5029031;28;25097;-69
2023/12/31 03:18:05;;;;;;;6.15;1.92;;;;;;;;;;5025376;28;25110;-70
2023/12/31 03:20:31;;;;;;;3.67;2.08;;;;;;;;;;5027588;28;25138;-69
2023/12/31 03:22:57;;;;;;;3.58;2.08;;;;;;;;;;5027339;28;25055;-69
2023/12/31 03:25:23;;;;;;;3.10;1.98;;;;;;;;;;5027253;28;25091;-70
2023/12/31 03:27:49;;;;;;;6.88;3.65;;;;;;;;;;5028984;28;25090;-69
2023/12/31 03:30:15;;;;;;;4.43;2.67;;;;;;;;;;5025983;28;25071;-69
2023/12/31 03:32:41;;;;;;;5.28;2.30;;;;;;;;;;5030096;28;25090;-70
2023/12/31 03:35:07;;;;;;;3.17;2.13;;;;;;;;;;5031474;28;25148;-69
2023/12/31 03:37:34;;;;;;;2.40;2.20;;;;;;;;;;5021961;28;25052;-69
2023/12/31 03:40:00;;;;;;;2.63;1.90;;;;;;;;;;5027834;28;25077;-68
2023/12/31 03:42:26;;;;;;;2.53;1.77;;;;;;;;;;5025464;28;25069;-69
2023/12/31 03:44:52;;;;;;;2.38;2.22;;;;;;;;;;5028990;28;25059;-68
2023/12/31 03:47:18;;;;;;;4.10;1.80;;;;;;;;;;5032703;28;25075;-70
2023/12/31 03:49:44;;;;;;;4.15;1.90;;;;;;;;;;5027737;28;25074;-69
2023/12/31 03:52:10;;;;;;;5.05;2.38;;;;;;;;;;5028685;28;25104;-69
2023/12/31 03:54:36;;;;;;;4.68;2.30;;;;;;;;;;5029096;28;25133;-69
2023/12/31 03:57:02;;;;;;;4.13;2.05;;;;;;;;;;5027306;28;25119;-70
2023/12/31 03:59:29;;;;;;;3.05;2.15;;;;;;;;;;5028762;28;25046;-69
2023/12/31 04:01:58;;;;;;;3.00;2.08;;;;;;;;;;5027919;28;25061;-68
2023/12/31 04:04:25;;;;;;;2.35;1.90;;;;;;;;;;5026708;28;25106;-69
2023/12/31 04:06:51;;;;;;;4.72;1.90;;;;;;;;;;5029769;28;25069;-68
2023/12/31 04:09:17;;;;;;;4.15;1.95;;;;;;;;;;5031028;28;25080;-69
2023/12/31 04:11:43;;;;;;;4.22;2.30;;;;;;;;;;5033088;28;25061;-68
2023/12/31 04:14:09;;;;;;;1.90;1.80;;;;;;;;;;5030889;28;25075;-71
2023/12/31 04:16:35;;;;;;;4.10;1.90;;;;;;;;;;5032095;28;25085;-69
2023/12/31 04:19:01;;;;;;;6.32;2.10;;;;;;;;;;5032426;28;25076;-69
2023/12/31 04:21:27;;;;;;;2.15;1.95;;;;;;;;;;5034391;28;25069;-68
2023/12/31 04:23:53;;;;;;;3.20;2.30;;;;;;;;;;5032516;28;25134;-68
2023/12/31 04:26:19;;;;;;;1.70;1.60;;;;;;;;;;5030426;28;25064;-68
2023/12/31 04:28:45;;;;;;;6.72;2.03;;;;;;;;;;5038629;28;25062;-69
2023/12/31 04:31:11;;;;;;;2.45;1.77;;;;;;;;;;5027876;28;25043;-70
2023/12/31 04:33:37;;;;;;;3.90;2.03;;;;;;;;;;5032279;28;25078;-71
2023/12/31 04:36:03;;;;;;;4.13;2.10;;;;;;;;;;5031284;28;25083;-70
2023/12/31 04:38:30;;;;;;;3.72;2.40;;;;;;;;;;5033935;28;25083;-68
2023/12/31 04:40:56;;;;;;;4.75;2.08;;;;;;;;;;5033462;28;25042;-68
2023/12/31 04:43:22;;;;;;;3.25;2.15;;;;;;;;;;5033794;28;25104;-69
2023/12/31 04:45:48;;;;;;;2.17;2.08;;;;;;;;;;5029525;28;25055;-69
2023/12/31 04:48:14;;;;;;;3.78;2.33;;;;;;;;;;5034068;28;25055;-69
2023/12/31 04:50:42;;;;;;;3.35;2.10;;;;;;;;;;5033295;28;25068;-69
2023/12/31 04:53:08;;;;;;;4.35;2.22;;;;;;;;;;5034472;28;25173;-69
2023/12/31 04:55:34;;;;;;;3.72;1.98;;;;;;;;;;5031565;28;25081;-70
2023/12/31 04:58:00;;;;;;;2.35;2.15;;;;;;;;;;5031902;28;25145;-68
2023/12/31 05:00:26;;;;;;;5.00;2.13;;;;;;;;;;5032173;28;25066;-70
2023/12/31 05:02:52;;;;;;;5.30;1.92;;;;;;;;;;5032124;28;25051;-68
2023/12/31 05:05:18;;;;;;;2.10;1.90;;;;;;;;;;5031809;28;25078;-69
2023/12/31 05:07:44;;;;;;;2.17;2.00;;;;;;;;;;5033246;28;25068;-70
2023/12/31 05:10:10;;;;;;;2.03;1.92;;;;;;;;;;5032902;28;25099;-70
2023/12/31 05:12:36;;;;;;;4.10;2.25;;;;;;;;;;5033457;28;25112;-69
2023/12/31 05:15:02;;;;;;;3.60;2.38;;;;;;;;;;5033965;28;25129;-69
2023/12/31 05:17:28;;;;;;;3.17;2.22;;;;;;;;;;5031637;28;25094;-69
2023/12/31 05:19:55;;;;;;;3.50;1.88;;;;;;;;;;5031720;28;25096;-70
2023/12/31 05:22:21;;;;;;;3.17;2.35;;;;;;;;;;5030697;28;25061;-70
2023/12/31 05:24:47;;;;;;;2.40;2.20;;;;;;;;;;5029012;28;25068;-69
2023/12/31 05:27:13;;;;;;;6.13;3.00;;;;;;;;;;5030138;28;25092;-69
2023/12/31 05:29:39;;;;;;;7.07;3.25;;;;;;;;;;5031183;28;25174;-70
2023/12/31 05:32:05;;;;;;;4.13;2.50;;;;;;;;;;5031321;28;25074;-68
2023/12/31 05:34:31;;;;;;;4.38;2.60;;;;;;;;;;5031116;28;25149;-70
2023/12/31 05:36:57;;;;;;;4.18;2.30;;;;;;;;;;5025978;28;25008;-71
2023/12/31 05:39:23;;;;;;;3.17;2.42;;;;;;;;;;5027628;28;25057;-72
2023/12/31 05:41:49;;;;;;;3.17;2.08;;;;;;;;;;5028533;28;25326;-70
2023/12/31 05:44:15;;;;;;;3.00;2.10;;;;;;;;;;5026417;28;25077;-70
2023/12/31 05:46:41;;;;;;;5.03;2.25;;;;;;;;;;5027346;28;25069;-70
2023/12/31 05:49:07;;;;;;;4.45;2.45;;;;;;;;;;5026857;28;25146;-69
2023/12/31 05:51:33;;;;;;;2.53;2.33;;;;;;;;;;5028065;28;25149;-70
2023/12/31 05:53:58;;;;;;;5.97;3.00;;;;;;;;;;5026173;28;25099;-69
2023/12/31 05:56:24;;;;;;;3.53;2.33;;;;;;;;;;5033866;28;25077;-70
2023/12/31 05:58:50;;;;;;;7.05;3.05;;;;;;;;;;5026240;28;25058;-70
2023/12/31 06:01:16;;;;;;;7.78;2.75;;;;;;;;;;5027909;28;25061;-71
2023/12/31 06:03:42;;;;;;;3.83;2.53;;;;;;;;;;5022030;28;25061;-69
2023/12/31 06:06:08;;;;;;;5.15;2.80;;;;;;;;;;5027315;28;25091;-71
2023/12/31 06:08:34;;;;;;;3.65;2.63;;;;;;;;;;5029151;28;25147;-71
2023/12/31 06:11:00;;;;;;;4.13;2.90;;;;;;;;;;5027948;28;25054;-70
2023/12/31 06:13:26;;;;;;;3.60;2.83;;;;;;;;;;5028853;28;25069;-68
2023/12/31 06:15:52;;;;;;;3.72;2.70;;;;;;;;;;5023909;28;25135;-69
2023/12/31 06:18:19;;;;;;;3.03;2.72;;;;;;;;;;5027961;28;25104;-69
2023/12/31 06:20:45;;;;;;;3.38;3.08;;;;;;;;;;5023950;28;25116;-69
2023/12/31 06:23:11;;;;;;;2.90;2.70;;;;;;;;;;5027089;28;25058;-70
2023/12/31 06:25:37;;;;;;;2.42;2.22;;;;;;;;;;5018965;28;25080;-70
2023/12/31 06:28:03;;;;;;;4.22;3.35;;;;;;;;;;5027918;28;25109;-70
2023/12/31 06:30:29;;;;;;;3.00;2.80;;;;;;;;;;5028649;28;25076;-70
2023/12/31 06:32:55;;;;;;;3.45;2.50;;;;;;;;;;5029001;28;25057;-69
2023/12/31 06:35:21;;;;;;;4.25;2.95;;;;;;;;;;5028413;28;25086;-69
2023/12/31 06:37:47;;;;;;;2.88;2.53;;;;;;;;;;5028925;28;25144;-70
2023/12/31 06:40:13;;;;;;;3.17;2.58;;;;;;;;;;5028322;28;25093;-70
2023/12/31 06:42:39;;;;;;;3.97;3.10;;;;;;;;;;5026748;28;25144;-71
2023/12/31 06:45:05;;;;;;;3.38;2.83;;;;;;;;;;5023845;28;25087;-70
2023/12/31 06:47:31;;;;;;;2.83;2.63;;;;;;;;;;5029561;28;25101;-68
2023/12/31 06:49:57;;;;;;;2.90;2.60;;;;;;;;;;5027896;28;25177;-68
2023/12/31 06:52:23;;;;;;;3.65;2.60;;;;;;;;;;5029254;28;25067;-69
2023/12/31 06:54:49;;;;;;;3.05;2.53;;;;;;;;;;5027921;28;25087;-70
2023/12/31 06:57:15;;;;;;;3.08;2.30;;;;;;;;;;5028522;28;25050;-71
2023/12/31 06:59:41;;;;;;;2.80;2.60;;;;;;;;;;5027087;28;25166;-69
2023/12/31 07:02:07;;;;;;;7.50;3.55;;;;;;;;;;5024371;28;25056;-69
2023/12/31 07:04:33;;;;;;;4.38;2.60;;;;;;;;;;5026190;28;25069;-70
2023/12/31 07:06:59;;;;;;;3.78;2.42;;;;;;;;;;5023840;28;25160;-70
2023/12/31 07:09:28;;;;;;;4.93;2.95;;;;;;;;;;5020522;28;25158;-70
2023/12/31 07:11:53;;;;;;;3.42;3.10;;;;;;;;;;5026058;28;25060;-69
2023/12/31 07:14:21;;;;;;;5.95;3.03;;;;;;;;;;5024262;28;25048;-70
2023/12/31 07:16:47;;;;;;;6.70;3.38;;;;;;;;;;5022523;28;25085;-70
2023/12/31 07:19:13;;;;;;;4.82;4.43;;;;;;;;;;5021933;28;25091;-70
2023/12/31 07:21:39;;;;;;;6.20;5.68;;;;;;;;;;5028388;28;25077;-70
2023/12/31 07:24:05;;;;;;;6.38;5.90;;;;;;;;;;5022340;28;25082;-70
2023/12/31 07:26:31;;;;;;;6.20;5.80;;;;;;;;;;5021338;28;25118;-70
2023/12/31 07:28:57;;;;;;;6.00;5.50;;;;;;;;;;5024020;28;25079;-70
2023/12/31 07:31:23;;;;;;;5.97;5.57;;;;;;;;;;5029181;28;25116;-70
2023/12/31 07:33:50;;;;;;;6.40;5.70;;;;;;;;;;5037654;28;25155;-71
2023/12/31 07:36:16;;;;;;;6.93;6.20;;;;;;;;;;5029914;28;25052;-71
2023/12/31 07:38:45;;;;;;;7.25;6.75;;;;;;;;;;5026720;28;25068;-71
2023/12/31 07:41:12;;;;;;;6.50;5.95;;;;;;;;;;5027835;28;25061;-71
2023/12/31 07:43:38;;;;;;;6.88;6.38;;;;;;;;;;5029696;28;25061;-71
2023/12/31 07:46:05;;;;;;;6.30;5.90;;;;;;;;;;5031030;28;25093;-72
2023/12/31 07:48:31;;;;;;;7.90;7.13;;;;;;;;;;5026233;28;25120;-70
2023/12/31 07:50:57;;;;;;;8.00;7.40;;;;;;;;;;5025292;28;25054;-71
2023/12/31 07:53:23;;;;;;;9.27;8.68;;;;;;;;;;5030224;28;25067;-69
2023/12/31 07:55:49;;;;;;;7.30;6.80;;;;;;;;;;5027210;28;25096;-70
2023/12/31 07:58:15;;;;;;;7.40;6.90;;;;;;;;;;5028464;28;25098;-70
2023/12/31 08:00:41;;;;;;;5.03;4.40;;;;;;;;;;5029788;28;25088;-70
2023/12/31 08:03:07;;;;;;;5.18;4.68;;;;;;;;;;5031015;28;25061;-71
2023/12/31 08:05:33;;;;;;;5.20;4.70;;;;;;;;;;5029968;28;25098;-71
2023/12/31 08:07:59;;;;;;;4.60;4.18;;;;;;;;;;5031789;28;25104;-72
2023/12/31 08:10:25;;;;;;;5.10;4.50;;;;;;;;;;5032441;28;25065;-72
2023/12/31 08:12:51;;;;;;;6.20;5.60;;;;;;;;;;5030739;28;25063;-72
2023/12/31 08:15:17;;;;;;;8.20;7.60;;;;;;;;;;5024132;28;25088;-70
2023/12/31 08:17:44;;;;;;;9.40;7.20;;;;;;;;;;5029211;28;25077;-70
2023/12/31 08:20:10;;;;;;;9.07;8.50;;;;;;;;;;5034631;28;25047;-71
2023/12/31 08:22:36;;;;;;;8.88;8.20;;;;;;;;;;5030927;28;25082;-71
2023/12/31 08:25:02;;;;;;;8.73;8.23;;;;;;;;;;5031068;28;25105;-71
2023/12/31 08:27:28;;;;;;;16.83;9.15;;;;;;;;;;5031552;28;25059;-72
2023/12/31 08:29:54;;;;;;;9.13;8.23;;;;;;;;;;5029447;28;25048;-70
2023/12/31 08:32:20;;;;;;;11.70;10.90;;;;;;;;;;5030604;28;25064;-71
2023/12/31 08:34:46;;;;;;;16.85;9.15;;;;;;;;;;5035010;28;25058;-70
2023/12/31 08:37:12;;;;;;;6.32;5.68;;;;;;;;;;5037227;28;25076;-71
2023/12/31 08:39:41;;;;;;;12.40;5.90;;;;;;;;;;5035716;28;25133;-71
2023/12/31 08:42:07;;;;;;;3.33;2.92;;;;;;;;;;5037992;28;25045;-71
2023/12/31 08:44:33;;;;;;;5.45;4.20;;;;;;;;;;5033246;28;25080;-71
2023/12/31 08:46:59;;;;;;;3.42;3.13;;;;;;;;;;5036340;28;25069;-71
2023/12/31 08:49:27;;;;;;;2.63;2.50;;;;;;;;;;5034548;28;25072;-70
2023/12/31 08:51:54;;;;;;;3.50;3.30;;;;;;;;;;5033856;28;25123;-70
2023/12/31 08:54:20;;;;;;;3.85;3.58;;;;;;;;;;5035620;28;25099;-72
2023/12/31 08:56:46;;;;;;;5.40;5.00;;;;;;;;;;5034947;28;25085;-72
2023/12/31 08:59:12;;;;;;;5.13;4.80;;;;;;;;;;5036687;28;25056;-72
2023/12/31 09:01:38;;;;;;;5.50;5.10;;;;;;;;;;5038900;28;25061;-70
2023/12/31 09:04:04;;;;;;;6.60;6.10;;;;;;;;;;5038511;28;25057;-72
2023/12/31 09:06:30;;;;;;;6.80;5.90;;;;;;;;;;5039209;28;25082;-72
2023/12/31 09:08:56;;;;;;;7.18;6.78;;;;;;;;;;5038765;28;25064;-70
2023/12/31 09:11:23;;;;;;;8.27;7.53;;;;;;;;;;5034313;28;25083;-72
2023/12/31 09:13:49;;;;;;;7.72;7.28;;;;;;;;;;5031602;28;25061;-71
2023/12/31 09:16:15;;;;;;;9.38;8.50;;;;;;;;;;5038447;28;25052;-71
2023/12/31 09:18:41;;;;;;;7.50;7.00;;;;;;;;;;5033960;28;25076;-73
2023/12/31 09:21:07;;;;;;;7.70;7.15;;;;;;;;;;5036227;28;25062;-73
2023/12/31 09:23:33;;;;;;;7.20;6.50;;;;;;;;;;5039853;28;25076;-73
2023/12/31 09:25:59;;;;;;;8.88;7.10;;;;;;;;;;5041539;28;25077;-71
2023/12/31 09:28:25;;;;;;;7.75;7.25;;;;;;;;;;5040220;28;25069;-72
2023/12/31 09:30:51;;;;;;;8.60;8.00;;;;;;;;;;5040508;28;25079;-72
2023/12/31 09:33:18;;;;;;;9.35;8.65;;;;;;;;;;5039829;28;25072;-71
2023/12/31 09:35:44;;;;;;;9.10;8.50;;;;;;;;;;5042768;28;25089;-71
2023/12/31 09:38:10;;;;;;;8.65;7.88;;;;;;;;;;5039635;28;25076;-71
2023/12/31 09:40:37;;;;;;;8.98;8.45;;;;;;;;;;5046923;28;25114;-71
2023/12/31 09:43:03;;;;;;;8.43;7.70;;;;;;;;;;5040881;28;25065;-71
2023/12/31 09:45:30;;;;;;;7.70;7.30;;;;;;;;;;5039412;28;25066;-71
2023/12/31 09:47:59;;;;;;;10.18;8.95;;;;;;;;;;5038076;28;25063;-71
2023/12/31 09:50:26;;;;;;;8.48;7.97;;;;;;;;;;5039817;28;25128;-70
2023/12/31 09:52:55;;;;;;;9.15;8.48;;;;;;;;;;5038001;28;25073;-71
2023/12/31 09:55:21;;;;;;;8.30;7.70;;;;;;;;;;5043993;28;25071;-72
2023/12/31 09:57:48;;;;;;;8.32;7.60;;;;;;;;;;5037099;28;25069;-71
2023/12/31 10:00:14;;;;;;;8.50;7.90;;;;;;;;;;5028746;28;25065;-73
2023/12/31 10:02:40;;;;;;;7.90;7.30;;;;;;;;;;5031848;28;25083;-71
2023/12/31 10:05:06;;;;;;;7.68;7.28;;;;;;;;;;5031626;28;25091;-71
2023/12/31 10:07:34;;;;;;;7.72;7.00;;;;;;;;;;5030363;28;25056;-71
2023/12/31 10:10:00;;;;;;;7.85;7.35;;;;;;;;;;5031004;28;25056;-71
2023/12/31 10:12:27;;;;;;;6.47;6.00;;;;;;;;;;5031730;28;25061;-72
2023/12/31 10:14:53;;;;;;;7.10;6.53;;;;;;;;;;5031398;28;25042;-72
2023/12/31 10:17:20;;;;;;;7.65;7.05;;;;;;;;;;5030306;28;25125;-72
2023/12/31 10:19:46;;;;;;;7.22;6.68;;;;;;;;;;5030917;28;25105;-72
2023/12/31 10:22:13;;;;;;;7.30;6.80;;;;;;;;;;5031552;28;25079;-71
2023/12/31 10:24:41;;;;;;;7.03;6.35;;;;;;;;;;5032393;28;25109;-70
2023/12/31 10:27:08;;;;;;;7.03;6.70;;;;;;;;;;5030966;28;25091;-70
2023/12/31 10:29:35;;;;;;;7.35;6.57;;;;;;;;;;5024217;28;25057;-71
2023/12/31 10:32:03;;;;;;;7.50;6.90;;;;;;;;;;5027319;28;25062;-70
2023/12/31 10:34:29;;;;;;;7.90;7.40;;;;;;;;;;5029384;28;25085;-71
2023/12/31 10:37:03;;;;;;;8.43;7.85;;;;;;;;;;5023725;28;25059;-71
2023/12/31 10:39:30;;;;;;;7.07;6.68;;;;;;;;;;5024752;28;25042;-71
2023/12/31 10:42:06;;;;;;;7.00;6.47;;;;;;;;;;5024828;28;25082;-72
2023/12/31 10:44:33;;;;;;;7.13;6.60;;;;;;;;;;5031905;28;25071;-72
2023/12/31 10:47:03;;;;;;;6.63;6.22;;;;;;;;;;5030365;28;25101;-71
2023/12/31 10:49:30;;;;;;;6.95;6.45;;;;;;;;;;5024948;28;25080;-71
2023/12/31 10:51:56;;;;;;;7.22;5.80;;;;;;;;;;5026527;28;25081;-72
2023/12/31 10:54:35;;;;;;;6.57;5.97;;;;;;;;;;5025802;28;25061;-71
2023/12/31 10:57:01;;;;;;;5.47;4.97;;;;;;;;;;5022097;28;25061;-70
2023/12/31 10:59:27;;;;;;;7.05;6.15;;;;;;;;;;5027028;28;25063;-71
2023/12/31 11:01:54;;;;;;;10.52;7.00;;;;;;;;;;5023377;28;25068;-71
2023/12/31 11:04:22;;;;;;;9.45;6.22;;;;;;;;;;5024573;28;25151;-73
2023/12/31 11:06:49;;;;;;;18.23;15.18;;;;;;;;;;5024441;28;25087;-73
2023/12/31 11:09:15;;;;;;;6.50;6.00;;;;;;;;;;5017415;28;25084;-73
2023/12/31 11:11:42;;;;;;;9.93;5.65;;;;;;;;;;5024620;28;25072;-71
2023/12/31 11:14:09;;;;;;;7.28;5.47;;;;;;;;;;5021298;28;25091;-70
2023/12/31 11:16:42;;;;;;;10.82;7.63;;;;;;;;;;5030205;28;25076;-71
2023/12/31 11:19:11;;;;;;;11.77;8.90;;;;;;;;;;5023965;28;25143;-72
2023/12/31 11:21:43;;;;;;;20.60;13.55;;;;;;;;;;5032532;28;25052;-73
2023/12/31 11:24:14;;;;;;;10.02;6.47;;;;;;;;;;5026631;28;25118;-72
2023/12/31 11:26:41;;;;;;;5.88;5.43;;;;;;;;;;5028910;28;25073;-69
2023/12/31 11:29:10;;;;;;;9.88;5.80;;;;;;;;;;5026227;28;25147;-71
2023/12/31 11:31:43;;;;;;;21.17;14.38;;;;;;;;;;5032077;28;25145;-70
2023/12/31 11:34:09;;;;;;;11.63;6.47;;;;;;;;;;5034088;28;25161;-72
2023/12/31 11:36:36;;;;;;;11.05;5.50;;;;;;;;;;5029328;28;25073;-71
2023/12/31 11:39:06;;;;;;;12.18;5.53;;;;;;;;;;5029919;28;25060;-71
2023/12/31 11:41:33;;;;;;;9.70;5.32;;;;;;;;;;5031427;28;25081;-70
2023/12/31 11:44:00;;;;;;;9.98;6.35;;;;;;;;;;5027208;28;25070;-70
2023/12/31 11:46:39;;;;;;;7.95;4.50;;;;;;;;;;5030522;28;25114;-71
2023/12/31 11:49:06;;;;;;;7.60;4.03;;;;;;;;;;5032389;28;25145;-72
2023/12/31 11:51:53;;;;;;;8.32;3.58;;;;;;;;;;5031623;28;25050;-71
2023/12/31 11:54:22;;;;;;;5.38;4.07;;;;;;;;;;5032185;28;25097;-69
2023/12/31 11:56:48;;;;;;;10.68;4.15;;;;;;;;;;5028103;28;25098;-71
2023/12/31 11:59:16;;;;;;;6.72;3.33;;;;;;;;;;5030630;28;25067;-69
2023/12/31 12:01:43;;;;;;;10.05;2.67;;;;;;;;;;5034561;28;25064;-70
2023/12/31 12:04:09;;;;;;;6.22;3.53;;;;;;;;;;5034876;28;25097;-70
2023/12/31 12:06:36;;;;;;;6.43;2.80;;;;;;;;;;5035612;28;25168;-70
2023/12/31 12:09:02;;;;;;;8.68;2.90;;;;;;;;;;5035693;28;25060;-71
2023/12/31 12:11:28;;;;;;;7.97;2.88;;;;;;;;;;5033061;28;25105;-71
2023/12/31 12:13:54;;;;;;;8.68;2.60;;;;;;;;;;5034681;28;25078;-70
2023/12/31 12:16:20;;;;;;;7.43;3.33;;;;;;;;;;5034341;28;25064;-71
2023/12/31 12:18:46;;;;;;;6.85;2.97;;;;;;;;;;5034648;28;25081;-72
2023/12/31 12:21:12;;;;;;;10.15;4.00;;;;;;;;;;5032255;28;25125;-71
2023/12/31 12:23:37;;;;;;;9.40;2.72;;;;;;;;;;5036644;28;25074;-70
2023/12/31 12:26:03;;;;;;;9.60;2.83;;;;;;;;;;5035710;28;25133;-70
2023/12/31 12:28:31;;;;;;;12.13;3.88;;;;;;;;;;5032140;28;25063;-71
2023/12/31 12:30:57;;;;;;;12.60;3.42;;;;;;;;;;5032071;28;25091;-71
2023/12/31 12:33:23;;;;;;;9.23;2.83;;;;;;;;;;5030204;28;25064;-70
2023/12/31 12:35:49;;;;;;;9.07;3.25;;;;;;;;;;5030185;28;25051;-71
2023/12/31 12:38:16;;;;;;;14.70;3.17;;;;;;;;;;5030747;28;25097;-70
2023/12/31 12:40:42;;;;;;;9.55;3.17;;;;;;;;;;5027729;28;25077;-71
2023/12/31 12:43:08;;;;;;;5.28;2.53;;;;;;;;;;5028217;28;25059;-70
2023/12/31 12:45:34;;;;;;;8.80;2.45;;;;;;;;;;5024394;28;25056;-70
2023/12/31 12:48:01;;;;;;;15.05;4.80;;;;;;;;;;5023962;28;25056;-71
2023/12/31 12:50:29;;;;;;;16.05;7.50;;;;;;;;;;5025477;28;25130;-71
2023/12/31 12:52:56;;;;;;;100.75;63.20;;;;;;;;;;5025103;28;25131;-71
2023/12/31 12:55:22;;;;;;;11.25;4.38;;;;;;;;;;5033261;28;25109;-70
2023/12/31 12:57:49;;;;;;;21.75;7.97;;;;;;;;;;5021284;28;25137;-69
2023/12/31 13:00:16;;;;;;;19.83;8.50;;;;;;;;;;5024153;28;25054;-69
2023/12/31 13:02:42;;;;;;;8.82;2.97;;;;;;;;;;5020486;28;25054;-71
2023/12/31 13:05:08;;;;;;;12.27;2.75;;;;;;;;;;5026979;28;25072;-70
2023/12/31 13:07:34;;;;;;;10.68;2.85;;;;;;;;;;5030927;28;25074;-69
2023/12/31 13:10:00;;;;;;;11.88;4.03;;;;;;;;;;5032114;28;25097;-71
2023/12/31 13:12:26;;;;;;;10.70;5.13;;;;;;;;;;5022651;28;25163;-69
2023/12/31 13:14:52;;;;;;;20.77;7.00;;;;;;;;;;5021668;28;25068;-72
2023/12/31 13:17:19;;;;;;;13.60;5.45;;;;;;;;;;5024394;28;25084;-71
2023/12/31 13:19:45;;;;;;;21.67;8.60;;;;;;;;;;5025158;28;25072;-70
2023/12/31 13:22:11;;;;;;;11.38;3.88;;;;;;;;;;5026609;28;25075;-71
2023/12/31 13:24:36;;;;;;;8.27;3.13;;;;;;;;;;5025565;28;25088;-71
2023/12/31 13:27:03;;;;;;;16.10;4.38;;;;;;;;;;5026588;28;25146;-71
2023/12/31 13:29:29;;;;;;;9.15;3.17;;;;;;;;;;5023649;28;25133;-70
2023/12/31 13:31:55;;;;;;;9.57;2.85;;;;;;;;;;5019837;28;25180;-71
2023/12/31 13:34:21;;;;;;;6.70;2.60;;;;;;;;;;5020120;28;25082;-69
2023/12/31 13:36:49;;;;;;;17.33;3.30;;;;;;;;;;5023413;28;25061;-71
2023/12/31 13:39:15;;;;;;;7.60;2.28;;;;;;;;;;5025286;28;25528;-70
2023/12/31 13:41:41;;;;;;;8.15;2.65;;;;;;;;;;5019056;28;25105;-70
2023/12/31 13:44:07;;;;;;;19.25;4.90;;;;;;;;;;5020309;28;25139;-71
2023/12/31 13:46:33;;;;;;;13.30;4.78;;;;;;;;;;5025359;28;25073;-71
2023/12/31 13:49:00;;;;;;;16.98;6.95;;;;;;;;;;5026525;28;25049;-71
2023/12/31 13:51:26;;;;;;;15.05;6.28;;;;;;;;;;5022337;28;25108;-70
2023/12/31 13:53:52;;;;;;;13.07;4.22;;;;;;;;;;5026094;28;25130;-71
2023/12/31 13:56:18;;;;;;;12.45;3.85;;;;;;;;;;5019471;28;25134;-71
2023/12/31 13:58:44;;;;;;;11.75;5.85;;;;;;;;;;5019877;28;25053;-70
2023/12/31 14:01:10;;;;;;;16.00;6.20;;;;;;;;;;5020071;28;25111;-71
2023/12/31 14:03:36;;;;;;;17.52;6.13;;;;;;;;;;5022348;28;25061;-71
2023/12/31 14:06:02;;;;;;;17.85;4.15;;;;;;;;;;5019270;28;25120;-72
2023/12/31 14:08:28;;;;;;;16.08;4.38;;;;;;;;;;5024098;28;25052;-73
2023/12/31 14:10:54;;;;;;;15.52;3.42;;;;;;;;;;5019206;28;25152;-70
2023/12/31 14:13:21;;;;;;;10.95;4.05;;;;;;;;;;5017197;28;25092;-71
2023/12/31 14:15:47;;;;;;;13.43;3.92;;;;;;;;;;5018815;28;25061;-70
2023/12/31 14:18:13;;;;;;;12.02;3.33;;;;;;;;;;5024419;28;25047;-71
2023/12/31 14:20:39;;;;;;;14.70;3.38;;;;;;;;;;5026907;28;25070;-70
2023/12/31 14:23:05;;;;;;;16.17;3.22;;;;;;;;;;5024993;28;25062;-69
2023/12/31 14:25:31;;;;;;;10.23;2.60;;;;;;;;;;5022680;28;25085;-70
2023/12/31 14:27:57;;;;;;;12.68;2.90;;;;;;;;;;5025195;28;25085;-69
2023/12/31 14:30:23;;;;;;;16.30;3.50;;;;;;;;;;5024342;28;25115;-71
2023/12/31 14:32:49;;;;;;;13.50;3.40;;;;;;;;;;5023891;28;25150;-70
2023/12/31 14:35:15;;;;;;;12.73;3.80;;;;;;;;;;5018861;28;25063;-70